createdAt,value
2018-12-08T00:00:35.283Z,99.90
2018-12-08T00:03:03.561Z,99.90
2018-12-08T00:05:31.852Z,99.90
2018-12-08T00:08:00.275Z,99.90
2018-12-08T00:10:28.749Z,99.90
2018-12-08T00:12:57.089Z,99.90
2018-12-08T00:15:25.409Z,99.90
2018-12-08T00:17:53.756Z,99.90
2018-12-08T00:20:22.172Z,99.90
2018-12-08T00:22:50.496Z,99.90
2018-12-08T00:25:18.865Z,99.90
2018-12-08T00:27:47.122Z,99.90
2018-12-08T00:30:26.829Z,99.90
2018-12-08T00:32:55.169Z,99.90
2018-12-08T00:35:23.482Z,99.90
2018-12-08T00:37:51.814Z,99.90
2018-12-08T00:40:20.114Z,99.90
2018-12-08T00:42:48.381Z,99.90
2018-12-08T00:45:16.686Z,99.90
2018-12-08T00:47:45.017Z,99.90
2018-12-08T00:50:13.395Z,99.90
2018-12-08T00:52:41.841Z,99.90
2018-12-08T00:55:10.130Z,99.90
2018-12-08T00:57:38.422Z,99.90
2018-12-08T01:00:06.800Z,99.90
2018-12-08T01:02:35.224Z,99.90
2018-12-08T01:05:03.674Z,99.90
2018-12-08T01:07:32.206Z,99.90
2018-12-08T01:10:00.606Z,99.90
2018-12-08T01:12:28.914Z,99.90
2018-12-08T01:14:57.216Z,99.90
2018-12-08T01:17:25.657Z,99.90
2018-12-08T01:19:53.950Z,99.90
2018-12-08T01:22:22.249Z,99.90
2018-12-08T01:24:50.539Z,99.90
2018-12-08T01:27:19.051Z,99.90
2018-12-08T01:29:47.517Z,99.90
2018-12-08T01:32:15.917Z,99.90
2018-12-08T01:34:44.385Z,99.90
2018-12-08T01:37:12.806Z,99.90
2018-12-08T01:39:41.469Z,99.90
2018-12-08T01:42:09.812Z,99.90
2018-12-08T01:44:38.116Z,99.90
2018-12-08T01:47:06.489Z,99.90
2018-12-08T01:49:34.753Z,99.90
2018-12-08T01:52:03.154Z,99.90
2018-12-08T01:54:31.545Z,99.90
2018-12-08T01:56:59.851Z,99.90
2018-12-08T01:59:28.129Z,99.90
2018-12-08T02:01:56.523Z,99.90
2018-12-08T02:04:24.797Z,99.90
2018-12-08T02:06:53.593Z,99.90
2018-12-08T02:09:21.906Z,99.90
2018-12-08T02:11:50.261Z,99.90
2018-12-08T02:14:18.641Z,99.90
2018-12-08T02:16:46.932Z,99.90
2018-12-08T02:19:15.196Z,99.90
2018-12-08T02:21:43.567Z,99.90
2018-12-08T02:24:11.833Z,99.90
2018-12-08T02:26:40.125Z,99.90
2018-12-08T02:29:08.496Z,99.90
2018-12-08T02:31:36.791Z,99.90
2018-12-08T02:34:05.049Z,99.90
2018-12-08T02:36:33.354Z,99.90
2018-12-08T02:39:01.692Z,99.90
2018-12-08T02:41:30.080Z,99.90
2018-12-08T02:43:58.453Z,99.90
2018-12-08T02:46:26.837Z,99.90
2018-12-08T02:48:55.106Z,99.90
2018-12-08T02:51:23.662Z,99.90
2018-12-08T02:53:51.957Z,99.90
2018-12-08T02:56:20.244Z,99.90
2018-12-08T02:58:48.611Z,99.90
2018-12-08T03:01:16.961Z,99.90
2018-12-08T03:03:45.293Z,99.90
2018-12-08T03:06:13.601Z,99.90
2018-12-08T03:08:41.882Z,99.90
2018-12-08T03:11:10.271Z,99.90
2018-12-08T03:13:38.540Z,99.90
2018-12-08T03:16:06.827Z,99.90
2018-12-08T03:18:35.099Z,99.90
2018-12-08T03:21:03.386Z,99.90
2018-12-08T03:23:31.643Z,99.90
2018-12-08T03:25:59.943Z,99.90
2018-12-08T03:28:28.213Z,99.90
2018-12-08T03:30:56.572Z,99.90
2018-12-08T03:33:24.860Z,99.90
2018-12-08T03:35:53.257Z,99.90
2018-12-08T03:38:21.532Z,99.90
2018-12-08T03:40:49.973Z,99.90
2018-12-08T03:43:18.367Z,99.90
2018-12-08T03:45:46.729Z,99.90
2018-12-08T03:48:15.037Z,99.90
2018-12-08T03:50:43.407Z,99.90
2018-12-08T03:53:11.780Z,99.90
2018-12-08T03:55:40.140Z,99.90
2018-12-08T03:58:08.438Z,99.90
2018-12-08T04:00:36.712Z,99.90
2018-12-08T04:03:05.094Z,99.90
2018-12-08T04:05:33.372Z,99.90
2018-12-08T04:08:01.758Z,99.90
2018-12-08T04:10:30.033Z,99.90
2018-12-08T04:12:58.331Z,99.90
2018-12-08T04:15:26.643Z,99.90
2018-12-08T04:17:54.933Z,99.90
2018-12-08T04:20:23.210Z,99.90
2018-12-08T04:22:51.592Z,99.90
2018-12-08T04:25:19.875Z,99.90
2018-12-08T04:27:48.325Z,99.90
2018-12-08T04:30:16.727Z,99.90
2018-12-08T04:32:45.183Z,99.90
2018-12-08T04:35:13.490Z,99.90
2018-12-08T04:37:41.781Z,99.90
2018-12-08T04:40:10.141Z,99.90
2018-12-08T04:42:38.564Z,99.90
2018-12-08T04:45:06.902Z,99.90
2018-12-08T04:47:35.400Z,99.90
2018-12-08T04:50:04.457Z,99.90
2018-12-08T04:52:32.817Z,99.90
2018-12-08T04:55:01.111Z,99.90
2018-12-08T04:57:29.481Z,99.90
2018-12-08T04:59:57.969Z,99.90
2018-12-08T05:02:26.265Z,99.90
2018-12-08T05:04:54.537Z,99.90
2018-12-08T05:07:22.896Z,99.90
2018-12-08T05:09:51.216Z,99.90
2018-12-08T05:12:19.526Z,99.90
2018-12-08T05:14:47.808Z,99.90
2018-12-08T05:17:16.178Z,99.90
2018-12-08T05:19:44.496Z,99.90
2018-12-08T05:22:12.857Z,99.90
2018-12-08T05:24:41.127Z,99.90
2018-12-08T05:27:09.425Z,99.90
2018-12-08T05:29:37.785Z,99.90
2018-12-08T05:32:06.168Z,99.90
2018-12-08T05:34:34.619Z,99.90
2018-12-08T05:37:03.505Z,99.90
2018-12-08T05:39:31.773Z,99.90
2018-12-08T05:42:00.310Z,99.90
2018-12-08T05:44:28.741Z,99.90
2018-12-08T05:46:57.001Z,99.90
2018-12-08T05:49:25.392Z,99.90
2018-12-08T05:51:53.682Z,99.90
2018-12-08T05:54:22.148Z,99.90
2018-12-08T05:56:50.470Z,99.90
2018-12-08T05:59:18.779Z,99.90
2018-12-08T06:01:47.106Z,99.90
2018-12-08T06:04:15.398Z,99.90
2018-12-08T06:06:43.700Z,99.90
2018-12-08T06:09:12.009Z,99.90
2018-12-08T06:11:40.382Z,99.90
2018-12-08T06:14:08.661Z,99.90
2018-12-08T06:16:36.959Z,99.90
2018-12-08T06:19:05.409Z,99.90
2018-12-08T06:21:37.095Z,99.90
2018-12-08T06:24:05.484Z,99.90
2018-12-08T06:26:36.733Z,99.90
2018-12-08T06:29:05.084Z,99.90
2018-12-08T06:31:33.349Z,99.90
2018-12-08T06:34:01.753Z,99.90
2018-12-08T06:36:30.008Z,99.90
2018-12-08T06:38:58.500Z,99.90
2018-12-08T06:41:26.764Z,99.90
2018-12-08T06:43:55.079Z,99.90
2018-12-08T06:46:23.537Z,99.90
2018-12-08T06:48:52.038Z,99.90
2018-12-08T06:51:20.399Z,99.90
2018-12-08T06:53:48.689Z,99.90
2018-12-08T06:56:17.041Z,99.90
2018-12-08T06:58:45.489Z,99.90
2018-12-08T07:01:13.803Z,99.90
2018-12-08T07:03:42.161Z,99.90
2018-12-08T07:06:10.555Z,99.90
2018-12-08T07:08:38.928Z,99.90
2018-12-08T07:11:07.204Z,99.90
2018-12-08T07:13:35.566Z,99.90
2018-12-08T07:16:03.970Z,99.90
2018-12-08T07:18:32.329Z,99.90
2018-12-08T07:21:00.704Z,99.90
2018-12-08T07:23:29.025Z,99.90
2018-12-08T07:25:57.650Z,99.90
2018-12-08T07:28:25.957Z,99.90
2018-12-08T07:30:54.515Z,99.90
2018-12-08T07:33:23.084Z,99.90
2018-12-08T07:35:51.608Z,99.90
2018-12-08T07:38:19.960Z,99.90
2018-12-08T07:40:48.326Z,99.90
2018-12-08T07:43:16.676Z,99.90
2018-12-08T07:45:45.772Z,99.90
2018-12-08T07:48:14.122Z,99.90
2018-12-08T07:50:42.519Z,99.90
2018-12-08T07:53:10.855Z,99.90
2018-12-08T07:55:39.233Z,99.90
2018-12-08T07:58:07.593Z,99.90
2018-12-08T08:00:35.930Z,99.90
2018-12-08T08:03:04.258Z,99.90
2018-12-08T08:05:32.624Z,99.90
2018-12-08T08:08:00.974Z,99.90
2018-12-08T08:10:29.271Z,99.90
2018-12-08T08:12:57.587Z,99.90
2018-12-08T08:15:25.943Z,99.90
2018-12-08T08:17:54.264Z,99.90
2018-12-08T08:20:22.592Z,99.90
2018-12-08T08:22:51.020Z,99.90
2018-12-08T08:25:19.368Z,99.90
2018-12-08T08:27:47.632Z,99.90
2018-12-08T08:30:16.027Z,99.90
2018-12-08T08:32:44.408Z,99.90
2018-12-08T08:35:12.747Z,99.90
2018-12-08T08:37:41.015Z,99.90
2018-12-08T08:40:10.148Z,99.90
2018-12-08T08:42:38.505Z,99.90
2018-12-08T08:45:07.310Z,99.90
2018-12-08T08:47:35.589Z,99.90
2018-12-08T08:50:05.690Z,99.90
2018-12-08T08:52:34.063Z,99.90
2018-12-08T08:55:02.402Z,99.90
2018-12-08T08:57:30.786Z,99.90
2018-12-08T08:59:59.214Z,99.90
2018-12-08T09:02:27.851Z,99.90
2018-12-08T09:04:56.424Z,99.90
2018-12-08T09:07:24.701Z,99.90
2018-12-08T09:09:53.126Z,99.90
2018-12-08T09:12:21.474Z,99.90
2018-12-08T09:14:49.779Z,99.90
2018-12-08T09:17:18.057Z,99.90
2018-12-08T09:19:46.417Z,99.90
2018-12-08T09:22:14.686Z,99.90
2018-12-08T09:24:42.988Z,99.90
2018-12-08T09:27:11.514Z,99.90
2018-12-08T09:29:40.017Z,99.90
2018-12-08T09:32:08.292Z,99.90
2018-12-08T09:34:36.585Z,99.90
2018-12-08T09:37:04.848Z,99.90
2018-12-08T09:39:33.122Z,99.90
2018-12-08T09:42:01.495Z,99.90
2018-12-08T09:44:29.784Z,99.90
2018-12-08T09:46:58.080Z,99.90
2018-12-08T09:49:26.521Z,99.90
2018-12-08T09:51:54.880Z,99.90
2018-12-08T09:54:23.189Z,99.90
2018-12-08T09:56:51.587Z,99.30
2018-12-08T09:59:19.947Z,99.90
2018-12-08T10:01:48.305Z,99.00
2018-12-08T10:04:16.569Z,99.30
2018-12-08T10:06:44.990Z,99.20
2018-12-08T10:09:13.328Z,99.90
2018-12-08T10:11:41.614Z,98.90
2018-12-08T10:14:09.993Z,99.00
2018-12-08T10:16:38.448Z,99.20
2018-12-08T10:19:06.718Z,99.20
2018-12-08T10:21:35.040Z,97.40
2018-12-08T10:24:03.431Z,97.10
2018-12-08T10:26:31.737Z,97.80
2018-12-08T10:29:00.042Z,97.40
2018-12-08T10:31:28.713Z,98.00
2018-12-08T10:33:57.093Z,97.80
2018-12-08T10:36:25.393Z,95.50
2018-12-08T10:38:53.740Z,95.10
2018-12-08T10:41:22.031Z,95.20
2018-12-08T10:43:50.304Z,95.40
2018-12-08T10:46:18.701Z,95.60
2018-12-08T10:48:47.049Z,95.90
2018-12-08T10:51:15.451Z,95.10
2018-12-08T10:53:43.739Z,95.10
2018-12-08T10:56:12.121Z,94.00
2018-12-08T10:58:40.420Z,94.10
2018-12-08T11:01:10.483Z,94.10
2018-12-08T11:03:53.638Z,94.20
2018-12-08T11:06:21.964Z,94.50
2018-12-08T11:08:50.303Z,94.20
2018-12-08T11:11:18.754Z,95.40
2018-12-08T11:13:47.022Z,94.40
2018-12-08T11:16:15.430Z,94.70
2018-12-08T11:18:43.884Z,93.90
2018-12-08T11:21:12.465Z,94.20
2018-12-08T11:23:40.750Z,94.10
2018-12-08T11:26:09.096Z,93.50
2018-12-08T11:28:37.416Z,99.90
2018-12-08T11:31:05.725Z,93.80
2018-12-08T11:33:34.116Z,93.70
2018-12-08T11:36:02.406Z,93.50
2018-12-08T11:38:30.711Z,91.60
2018-12-08T11:40:59.102Z,90.10
2018-12-08T11:43:27.372Z,89.50
2018-12-08T11:45:55.697Z,88.60
2018-12-08T11:48:24.128Z,87.00
2018-12-08T11:50:52.513Z,86.60
2018-12-08T11:53:20.787Z,86.50
2018-12-08T11:55:49.092Z,84.60
2018-12-08T11:58:17.490Z,84.50
2018-12-08T12:00:45.797Z,85.10
2018-12-08T12:03:14.168Z,86.40
2018-12-08T12:05:44.455Z,87.90
2018-12-08T12:08:12.870Z,89.30
2018-12-08T12:10:41.175Z,88.30
2018-12-08T12:13:09.564Z,89.00
2018-12-08T12:15:38.261Z,90.30
2018-12-08T12:18:06.686Z,90.70
2018-12-08T12:20:34.953Z,90.20
2018-12-08T12:23:03.257Z,90.30
2018-12-08T12:25:31.746Z,90.40
2018-12-08T12:28:00.323Z,90.70
2018-12-08T12:30:29.035Z,90.50
2018-12-08T12:32:57.348Z,90.30
2018-12-08T12:35:25.696Z,91.50
2018-12-08T12:37:54.121Z,91.40
2018-12-08T12:40:22.395Z,93.10
2018-12-08T12:42:50.735Z,93.50
2018-12-08T12:45:19.061Z,92.20
2018-12-08T12:47:47.372Z,92.80
2018-12-08T12:50:15.707Z,93.00
2018-12-08T12:52:44.080Z,93.20
2018-12-08T12:55:12.364Z,92.40
2018-12-08T12:57:40.728Z,92.50
2018-12-08T13:00:10.974Z,92.40
2018-12-08T13:02:39.370Z,93.00
2018-12-08T13:05:07.828Z,93.10
2018-12-08T13:07:36.194Z,93.10
2018-12-08T13:10:05.440Z,93.50
2018-12-08T13:12:33.968Z,93.20
2018-12-08T13:15:02.347Z,93.10
2018-12-08T13:17:30.651Z,93.10
2018-12-08T13:19:58.918Z,93.20
2018-12-08T13:22:27.201Z,93.80
2018-12-08T13:24:58.989Z,93.40
2018-12-08T13:27:27.341Z,93.90
2018-12-08T13:29:55.637Z,92.50
2018-12-08T13:32:24.102Z,90.30
2018-12-08T13:34:52.561Z,90.00
2018-12-08T13:37:20.920Z,90.80
2018-12-08T13:39:49.280Z,90.80
2018-12-08T13:42:17.656Z,82.00
2018-12-08T13:44:45.934Z,73.00
2018-12-08T13:47:14.312Z,69.80
2018-12-08T13:49:42.694Z,75.50
2018-12-08T13:52:10.978Z,85.40
2018-12-08T13:54:45.807Z,90.70
2018-12-08T13:57:14.094Z,93.10
2018-12-08T13:59:44.116Z,95.00
2018-12-08T14:02:12.468Z,96.20
2018-12-08T14:04:40.733Z,96.20
2018-12-08T14:07:09.134Z,96.20
2018-12-08T14:09:37.408Z,96.60
2018-12-08T14:12:05.743Z,96.90
2018-12-08T14:14:34.017Z,97.50
2018-12-08T14:17:02.343Z,97.50
2018-12-08T14:19:30.745Z,98.00
2018-12-08T14:21:59.411Z,98.20
2018-12-08T14:24:27.854Z,98.90
2018-12-08T14:26:56.148Z,99.40
2018-12-08T14:29:24.408Z,99.80
2018-12-08T14:31:53.004Z,99.90
2018-12-08T14:34:21.518Z,99.90
2018-12-08T14:36:49.828Z,99.90
2018-12-08T14:39:18.114Z,99.90
2018-12-08T14:41:46.687Z,99.90
2018-12-08T14:44:14.969Z,99.90
2018-12-08T14:46:43.337Z,99.90
2018-12-08T14:49:11.633Z,99.90
2018-12-08T14:51:39.917Z,99.90
2018-12-08T14:54:08.217Z,99.90
2018-12-08T14:56:36.569Z,99.90
2018-12-08T15:01:32.975Z,99.90
2018-12-08T15:04:01.367Z,99.90
2018-12-08T15:06:29.640Z,99.90
2018-12-08T15:08:57.948Z,99.90
2018-12-08T15:11:26.217Z,99.90
2018-12-08T15:18:50.744Z,99.90
2018-12-08T15:21:19.091Z,99.90
2018-12-08T15:23:47.403Z,99.90
2018-12-08T15:26:15.743Z,99.90
2018-12-08T15:28:44.043Z,99.90
2018-12-08T15:31:12.300Z,99.90
2018-12-08T15:33:41.126Z,99.90
2018-12-08T15:36:09.479Z,99.90
2018-12-08T15:38:37.864Z,99.90
2018-12-08T15:41:06.140Z,99.90
2018-12-08T15:43:34.694Z,99.90
2018-12-08T15:46:03.013Z,99.90
2018-12-08T15:48:31.310Z,99.90
2018-12-08T15:50:59.614Z,99.90
2018-12-08T15:53:27.997Z,99.90
2018-12-08T15:55:56.273Z,99.90
2018-12-08T15:58:24.687Z,99.90
2018-12-08T16:00:52.954Z,99.90
2018-12-08T16:03:21.303Z,99.90
2018-12-08T16:05:49.598Z,99.90
2018-12-08T16:08:17.920Z,99.90
2018-12-08T16:10:46.259Z,99.90
2018-12-08T16:13:14.554Z,99.90
2018-12-08T16:15:42.908Z,99.90
2018-12-08T16:18:11.283Z,99.90
2018-12-08T16:20:39.546Z,99.90
2018-12-08T16:23:07.835Z,99.90
2018-12-08T16:25:36.205Z,99.90
2018-12-08T16:28:04.493Z,99.90
2018-12-08T16:33:00.968Z,99.90
2018-12-08T16:35:29.252Z,99.90
2018-12-08T16:37:57.580Z,99.90
2018-12-08T16:40:25.978Z,99.90
2018-12-08T16:42:54.388Z,99.90
2018-12-08T16:45:22.793Z,99.90
2018-12-08T16:47:51.093Z,99.90
2018-12-08T16:55:15.853Z,99.90
2018-12-08T17:00:12.448Z,99.90
2018-12-08T17:05:09.014Z,99.90
2018-12-08T17:07:37.396Z,99.90
2018-12-08T17:10:06.593Z,99.90
2018-12-08T17:15:02.935Z,99.90
2018-12-08T17:22:27.609Z,99.90
2018-12-08T17:24:55.937Z,99.90
2018-12-08T17:27:24.200Z,99.90
2018-12-08T17:32:20.664Z,99.90
2018-12-08T17:34:49.137Z,99.90
2018-12-08T17:42:13.581Z,99.90
2018-12-08T17:44:41.941Z,99.90
2018-12-08T17:47:10.237Z,99.90
2018-12-08T17:49:38.760Z,99.90
2018-12-08T17:52:07.385Z,99.90
2018-12-08T17:54:35.738Z,99.90
2018-12-08T17:57:04.023Z,99.90
2018-12-08T17:59:32.349Z,99.90
2018-12-08T18:02:00.634Z,99.90
2018-12-08T18:04:28.927Z,99.90
2018-12-08T18:06:57.326Z,99.90
2018-12-08T18:09:25.628Z,99.90
2018-12-08T18:11:53.987Z,99.90
2018-12-08T18:14:22.366Z,99.90
2018-12-08T18:16:50.639Z,99.90
2018-12-08T18:19:18.931Z,99.90
2018-12-08T18:21:47.341Z,99.90
2018-12-08T18:24:15.857Z,99.90
2018-12-08T18:26:44.450Z,99.90
2018-12-08T18:29:12.750Z,99.90
2018-12-08T18:31:41.084Z,99.90
2018-12-08T18:34:09.489Z,99.90
2018-12-08T18:36:37.756Z,99.90
2018-12-08T18:39:07.236Z,99.90
2018-12-08T18:44:03.709Z,99.90
2018-12-08T18:46:32.056Z,99.90
2018-12-08T18:49:00.355Z,99.90
2018-12-08T18:51:28.641Z,99.90
2018-12-08T18:53:56.922Z,99.90
2018-12-08T18:56:25.179Z,99.90
2018-12-08T18:58:53.580Z,99.90
2018-12-08T19:01:22.016Z,99.90
2018-12-08T19:03:50.421Z,99.90
2018-12-08T19:11:14.939Z,99.90
2018-12-08T19:13:43.220Z,99.90
2018-12-08T19:16:11.582Z,99.90
2018-12-08T19:21:07.934Z,99.90
2018-12-08T19:23:43.467Z,99.90
2018-12-08T19:26:06.544Z,99.90
2018-12-08T19:28:34.908Z,99.90
2018-12-08T19:31:03.296Z,99.90
2018-12-08T19:33:31.615Z,99.90
2018-12-08T19:40:56.201Z,99.90
2018-12-08T21:07:22.410Z,99.90
2018-12-08T21:09:50.771Z,99.90
2018-12-08T21:12:19.068Z,99.90
2018-12-08T21:14:47.339Z,99.90
2018-12-08T21:17:15.633Z,99.90
2018-12-08T21:32:06.324Z,99.90
2018-12-08T22:09:08.496Z,99.90
2018-12-08T22:11:36.895Z,99.90
2018-12-08T22:14:05.181Z,99.90
2018-12-08T22:19:01.834Z,99.90
2018-12-08T22:21:30.137Z,99.90
2018-12-08T22:23:58.391Z,99.90
2018-12-08T22:26:26.697Z,99.90
2018-12-08T22:28:54.965Z,99.90
2018-12-08T22:31:23.285Z,99.90
2018-12-08T22:33:51.649Z,99.90
2018-12-08T22:36:19.998Z,99.90
2018-12-08T22:38:48.264Z,99.90
2018-12-08T22:41:16.624Z,99.90
2018-12-08T22:43:45.009Z,99.90
2018-12-08T22:46:13.297Z,99.90
2018-12-08T22:48:41.724Z,99.90
2018-12-08T22:51:10.025Z,99.90
2018-12-08T22:53:38.293Z,99.90
2018-12-08T22:56:06.585Z,99.90
2018-12-08T22:58:34.888Z,99.90
2018-12-08T23:01:03.165Z,99.90
2018-12-08T23:03:31.447Z,99.90
2018-12-08T23:05:59.704Z,99.90
2018-12-08T23:08:27.992Z,99.90
2018-12-08T23:15:52.341Z,99.90
2018-12-08T23:18:20.917Z,99.90
2018-12-08T23:20:49.188Z,99.90
2018-12-08T23:23:17.487Z,99.90
2018-12-08T23:25:45.760Z,99.90
2018-12-08T23:28:14.136Z,99.90
2018-12-08T23:30:42.562Z,99.90
2018-12-08T23:33:10.914Z,99.90
2018-12-08T23:35:39.312Z,99.90
2018-12-08T23:38:07.605Z,99.90
2018-12-08T23:40:35.947Z,99.90
2018-12-08T23:43:04.242Z,99.90
2018-12-08T23:45:32.561Z,99.90
2018-12-08T23:48:00.935Z,99.90
2018-12-08T23:50:29.252Z,99.90
2018-12-08T23:52:57.540Z,99.90
2018-12-08T23:55:25.816Z,99.90
2018-12-08T23:57:54.306Z,99.90
